sensor_id;sensor_type;location;lat;lon;timestamp;pressure;altitude;pressure_sealevel;temperature
12875;BMP180;6505;51.114;13.128;2022-09-09T00:00:47;99139.00;;;22.10
12875;BMP180;6505;51.114;13.128;2022-09-09T00:03:23;99143.00;;;22.20
12875;BMP180;6505;51.114;13.128;2022-09-09T00:06:03;99123.00;;;22.20
12875;BMP180;6505;51.114;13.128;2022-09-09T00:08:42;99130.00;;;22.10
12875;BMP180;6505;51.114;13.128;2022-09-09T00:11:23;99131.00;;;22.10
12875;BMP180;6505;51.114;13.128;2022-09-09T00:14:00;99130.00;;;22.10
12875;BMP180;6505;51.114;13.128;2022-09-09T00:16:36;99137.00;;;22.10
12875;BMP180;6505;51.114;13.128;2022-09-09T00:19:14;99143.00;;;22.10
12875;BMP180;6505;51.114;13.128;2022-09-09T00:22:00;99135.00;;;22.10
12875;BMP180;6505;51.114;13.128;2022-09-09T00:24:41;99129.00;;;22.10
12875;BMP180;6505;51.114;13.128;2022-09-09T00:27:24;99096.00;;;22.10
12875;BMP180;6505;51.114;13.128;2022-09-09T00:30:00;99125.00;;;22.00
12875;BMP180;6505;51.114;13.128;2022-09-09T00:32:30;99129.00;;;22.10
12875;BMP180;6505;51.114;13.128;2022-09-09T00:35:04;99128.00;;;22.00
12875;BMP180;6505;51.114;13.128;2022-09-09T00:37:42;99121.00;;;22.00
12875;BMP180;6505;51.114;13.128;2022-09-09T00:40:24;99120.00;;;22.00
12875;BMP180;6505;51.114;13.128;2022-09-09T00:43:12;99123.00;;;22.00
12875;BMP180;6505;51.114;13.128;2022-09-09T00:46:07;99105.00;;;21.90
12875;BMP180;6505;51.114;13.128;2022-09-09T00:48:50;99117.00;;;22.00
12875;BMP180;6505;51.114;13.128;2022-09-09T00:51:33;99114.00;;;21.90
12875;BMP180;6505;51.114;13.128;2022-09-09T00:54:24;99120.00;;;21.90
12875;BMP180;6505;51.114;13.128;2022-09-09T00:57:10;99123.00;;;21.90
12875;BMP180;6505;51.114;13.128;2022-09-09T00:59:48;99112.00;;;21.90
12875;BMP180;6505;51.114;13.128;2022-09-09T01:02:27;99122.00;;;21.90
12875;BMP180;6505;51.114;13.128;2022-09-09T01:05:07;99114.00;;;21.90
12875;BMP180;6505;51.114;13.128;2022-09-09T01:07:44;99107.00;;;21.90
12875;BMP180;6505;51.114;13.128;2022-09-09T01:10:30;99117.00;;;21.90
12875;BMP180;6505;51.114;13.128;2022-09-09T01:13:14;99116.00;;;21.90
12875;BMP180;6505;51.114;13.128;2022-09-09T01:15:46;99116.00;;;21.90
12875;BMP180;6505;51.114;13.128;2022-09-09T01:18:20;99112.00;;;21.90
12875;BMP180;6505;51.114;13.128;2022-09-09T01:20:59;99119.00;;;21.90
12875;BMP180;6505;51.114;13.128;2022-09-09T01:23:48;99118.00;;;21.80
12875;BMP180;6505;51.114;13.128;2022-09-09T01:26:32;99121.00;;;21.80
12875;BMP180;6505;51.114;13.128;2022-09-09T01:29:09;99120.00;;;21.80
12875;BMP180;6505;51.114;13.128;2022-09-09T01:31:51;99123.00;;;21.80
12875;BMP180;6505;51.114;13.128;2022-09-09T01:34:22;99122.00;;;21.80
12875;BMP180;6505;51.114;13.128;2022-09-09T01:36:59;99118.00;;;21.80
12875;BMP180;6505;51.114;13.128;2022-09-09T01:39:32;99115.00;;;21.80
12875;BMP180;6505;51.114;13.128;2022-09-09T01:42:09;99119.00;;;21.80
12875;BMP180;6505;51.114;13.128;2022-09-09T01:44:38;99106.00;;;21.80
12875;BMP180;6505;51.114;13.128;2022-09-09T01:47:08;99112.00;;;21.80
12875;BMP180;6505;51.114;13.128;2022-09-09T01:49:52;99115.00;;;21.80
12875;BMP180;6505;51.114;13.128;2022-09-09T01:52:24;99114.00;;;21.80
12875;BMP180;6505;51.114;13.128;2022-09-09T01:54:53;99108.00;;;21.80
12875;BMP180;6505;51.114;13.128;2022-09-09T01:57:31;99111.00;;;21.80
12875;BMP180;6505;51.114;13.128;2022-09-09T02:00:07;99116.00;;;21.80
12875;BMP180;6505;51.114;13.128;2022-09-09T02:02:55;99105.00;;;21.70
12875;BMP180;6505;51.114;13.128;2022-09-09T02:05:38;99110.00;;;21.70
12875;BMP180;6505;51.114;13.128;2022-09-09T02:08:21;99113.00;;;21.70
12875;BMP180;6505;51.114;13.128;2022-09-09T02:11:05;99117.00;;;21.70
12875;BMP180;6505;51.114;13.128;2022-09-09T02:13:53;99107.00;;;21.70
12875;BMP180;6505;51.114;13.128;2022-09-09T02:16:28;99127.00;;;21.70
12875;BMP180;6505;51.114;13.128;2022-09-09T02:19:06;99114.00;;;21.70
12875;BMP180;6505;51.114;13.128;2022-09-09T02:22:00;99116.00;;;21.70
12875;BMP180;6505;51.114;13.128;2022-09-09T02:24:33;99106.00;;;21.60
12875;BMP180;6505;51.114;13.128;2022-09-09T02:27:22;99110.00;;;21.70
12875;BMP180;6505;51.114;13.128;2022-09-09T02:29:55;99120.00;;;21.60
12875;BMP180;6505;51.114;13.128;2022-09-09T02:32:36;99125.00;;;21.60
12875;BMP180;6505;51.114;13.128;2022-09-09T02:35:13;99114.00;;;21.60
12875;BMP180;6505;51.114;13.128;2022-09-09T02:37:45;99118.00;;;21.60
12875;BMP180;6505;51.114;13.128;2022-09-09T02:40:15;99117.00;;;21.70
12875;BMP180;6505;51.114;13.128;2022-09-09T02:42:49;99121.00;;;21.60
12875;BMP180;6505;51.114;13.128;2022-09-09T02:45:27;99119.00;;;21.60
12875;BMP180;6505;51.114;13.128;2022-09-09T02:48:07;99112.00;;;21.60
12875;BMP180;6505;51.114;13.128;2022-09-09T02:50:48;99117.00;;;21.60
12875;BMP180;6505;51.114;13.128;2022-09-09T02:53:31;99114.00;;;21.60
12875;BMP180;6505;51.114;13.128;2022-09-09T02:56:06;99116.00;;;21.60
12875;BMP180;6505;51.114;13.128;2022-09-09T02:58:39;99107.00;;;21.60
12875;BMP180;6505;51.114;13.128;2022-09-09T03:01:09;99115.00;;;21.60
12875;BMP180;6505;51.114;13.128;2022-09-09T03:03:38;99114.00;;;21.60
12875;BMP180;6505;51.114;13.128;2022-09-09T03:06:12;99114.00;;;21.60
12875;BMP180;6505;51.114;13.128;2022-09-09T03:08:41;99113.00;;;21.60
12875;BMP180;6505;51.114;13.128;2022-09-09T03:11:16;99123.00;;;21.60
12875;BMP180;6505;51.114;13.128;2022-09-09T03:13:45;99112.00;;;21.60
12875;BMP180;6505;51.114;13.128;2022-09-09T03:16:15;99115.00;;;21.60
12875;BMP180;6505;51.114;13.128;2022-09-09T03:18:47;99122.00;;;21.50
12875;BMP180;6505;51.114;13.128;2022-09-09T03:21:16;99113.00;;;21.50
12875;BMP180;6505;51.114;13.128;2022-09-09T03:23:44;99111.00;;;21.50
12875;BMP180;6505;51.114;13.128;2022-09-09T03:26:13;99113.00;;;21.50
12875;BMP180;6505;51.114;13.128;2022-09-09T03:28:45;99118.00;;;21.50
12875;BMP180;6505;51.114;13.128;2022-09-09T03:31:18;99118.00;;;21.50
12875;BMP180;6505;51.114;13.128;2022-09-09T03:33:47;99113.00;;;21.50
12875;BMP180;6505;51.114;13.128;2022-09-09T03:36:17;99121.00;;;21.50
12875;BMP180;6505;51.114;13.128;2022-09-09T03:38:45;99133.00;;;21.50
12875;BMP180;6505;51.114;13.128;2022-09-09T03:41:13;99123.00;;;21.50
12875;BMP180;6505;51.114;13.128;2022-09-09T03:43:42;99120.00;;;21.50
12875;BMP180;6505;51.114;13.128;2022-09-09T03:46:10;99109.00;;;21.50
12875;BMP180;6505;51.114;13.128;2022-09-09T03:48:40;99116.00;;;21.50
12875;BMP180;6505;51.114;13.128;2022-09-09T03:51:08;99113.00;;;21.50
12875;BMP180;6505;51.114;13.128;2022-09-09T03:53:36;99123.00;;;21.50
12875;BMP180;6505;51.114;13.128;2022-09-09T03:56:06;99139.00;;;21.50
12875;BMP180;6505;51.114;13.128;2022-09-09T03:58:36;99127.00;;;21.50
12875;BMP180;6505;51.114;13.128;2022-09-09T04:01:09;99126.00;;;21.40
12875;BMP180;6505;51.114;13.128;2022-09-09T04:03:42;99110.00;;;21.40
12875;BMP180;6505;51.114;13.128;2022-09-09T04:06:13;99133.00;;;21.40
12875;BMP180;6505;51.114;13.128;2022-09-09T04:08:44;99117.00;;;21.40
12875;BMP180;6505;51.114;13.128;2022-09-09T04:11:15;99131.00;;;21.40
12875;BMP180;6505;51.114;13.128;2022-09-09T04:13:44;99123.00;;;21.40
12875;BMP180;6505;51.114;13.128;2022-09-09T04:16:13;99134.00;;;21.40
12875;BMP180;6505;51.114;13.128;2022-09-09T04:18:44;99130.00;;;21.40
12875;BMP180;6505;51.114;13.128;2022-09-09T04:21:13;99123.00;;;21.40
12875;BMP180;6505;51.114;13.128;2022-09-09T04:23:42;99123.00;;;21.40
12875;BMP180;6505;51.114;13.128;2022-09-09T04:26:11;99122.00;;;21.30
12875;BMP180;6505;51.114;13.128;2022-09-09T04:28:39;99113.00;;;21.30
12875;BMP180;6505;51.114;13.128;2022-09-09T04:31:17;99135.00;;;21.30
12875;BMP180;6505;51.114;13.128;2022-09-09T04:33:49;99132.00;;;21.30
12875;BMP180;6505;51.114;13.128;2022-09-09T04:36:18;99140.00;;;21.30
12875;BMP180;6505;51.114;13.128;2022-09-09T04:38:48;99133.00;;;21.30
12875;BMP180;6505;51.114;13.128;2022-09-09T04:41:17;99130.00;;;21.70
12875;BMP180;6505;51.114;13.128;2022-09-09T04:43:48;99124.00;;;21.60
12875;BMP180;6505;51.114;13.128;2022-09-09T04:46:16;99129.00;;;21.50
12875;BMP180;6505;51.114;13.128;2022-09-09T04:48:50;99128.00;;;21.50
12875;BMP180;6505;51.114;13.128;2022-09-09T04:51:19;99089.00;;;21.50
12875;BMP180;6505;51.114;13.128;2022-09-09T04:53:48;99124.00;;;21.50
12875;BMP180;6505;51.114;13.128;2022-09-09T04:56:19;99127.00;;;21.40
12875;BMP180;6505;51.114;13.128;2022-09-09T04:58:51;99130.00;;;21.40
12875;BMP180;6505;51.114;13.128;2022-09-09T05:01:22;99129.00;;;21.40
12875;BMP180;6505;51.114;13.128;2022-09-09T05:03:54;99136.00;;;21.40
12875;BMP180;6505;51.114;13.128;2022-09-09T05:06:23;99135.00;;;21.30
12875;BMP180;6505;51.114;13.128;2022-09-09T05:08:57;99140.00;;;21.30
12875;BMP180;6505;51.114;13.128;2022-09-09T05:11:31;99147.00;;;21.30
12875;BMP180;6505;51.114;13.128;2022-09-09T05:14:05;99147.00;;;21.30
12875;BMP180;6505;51.114;13.128;2022-09-09T05:16:34;99138.00;;;21.30
12875;BMP180;6505;51.114;13.128;2022-09-09T05:19:03;99151.00;;;21.30
12875;BMP180;6505;51.114;13.128;2022-09-09T05:21:42;99155.00;;;21.30
12875;BMP180;6505;51.114;13.128;2022-09-09T05:24:11;99155.00;;;21.30
12875;BMP180;6505;51.114;13.128;2022-09-09T05:26:39;99161.00;;;21.30
12875;BMP180;6505;51.114;13.128;2022-09-09T05:29:07;99157.00;;;21.30
12875;BMP180;6505;51.114;13.128;2022-09-09T05:31:35;99161.00;;;21.30
12875;BMP180;6505;51.114;13.128;2022-09-09T05:34:09;99152.00;;;21.30
12875;BMP180;6505;51.114;13.128;2022-09-09T05:36:38;99154.00;;;21.30
12875;BMP180;6505;51.114;13.128;2022-09-09T05:39:07;99155.00;;;21.20
12875;BMP180;6505;51.114;13.128;2022-09-09T05:41:35;99152.00;;;21.30
12875;BMP180;6505;51.114;13.128;2022-09-09T05:44:03;99149.00;;;21.30
12875;BMP180;6505;51.114;13.128;2022-09-09T05:46:37;99158.00;;;21.30
12875;BMP180;6505;51.114;13.128;2022-09-09T05:49:05;99158.00;;;21.30
12875;BMP180;6505;51.114;13.128;2022-09-09T05:51:36;99161.00;;;21.30
12875;BMP180;6505;51.114;13.128;2022-09-09T05:54:09;99161.00;;;21.30
12875;BMP180;6505;51.114;13.128;2022-09-09T05:56:42;99160.00;;;21.30
12875;BMP180;6505;51.114;13.128;2022-09-09T05:59:15;99166.00;;;21.30
12875;BMP180;6505;51.114;13.128;2022-09-09T06:01:43;99156.00;;;21.30
12875;BMP180;6505;51.114;13.128;2022-09-09T06:04:32;99152.00;;;21.30
12875;BMP180;6505;51.114;13.128;2022-09-09T06:07:02;99162.00;;;21.30
12875;BMP180;6505;51.114;13.128;2022-09-09T06:09:30;99153.00;;;21.40
12875;BMP180;6505;51.114;13.128;2022-09-09T06:11:59;99133.00;;;21.40
12875;BMP180;6505;51.114;13.128;2022-09-09T06:14:27;99164.00;;;21.40
12875;BMP180;6505;51.114;13.128;2022-09-09T06:16:58;99172.00;;;21.40
12875;BMP180;6505;51.114;13.128;2022-09-09T06:19:29;99185.00;;;21.50
12875;BMP180;6505;51.114;13.128;2022-09-09T06:21:58;99175.00;;;21.50
12875;BMP180;6505;51.114;13.128;2022-09-09T06:24:30;99165.00;;;21.50
12875;BMP180;6505;51.114;13.128;2022-09-09T06:27:00;99162.00;;;21.50
12875;BMP180;6505;51.114;13.128;2022-09-09T06:29:32;99164.00;;;21.50
12875;BMP180;6505;51.114;13.128;2022-09-09T06:32:02;99174.00;;;21.60
12875;BMP180;6505;51.114;13.128;2022-09-09T06:34:30;99167.00;;;21.60
12875;BMP180;6505;51.114;13.128;2022-09-09T06:37:00;99167.00;;;21.60
12875;BMP180;6505;51.114;13.128;2022-09-09T06:39:46;99169.00;;;21.60
12875;BMP180;6505;51.114;13.128;2022-09-09T06:42:15;99171.00;;;21.60
12875;BMP180;6505;51.114;13.128;2022-09-09T06:44:51;99167.00;;;21.70
12875;BMP180;6505;51.114;13.128;2022-09-09T06:47:31;99173.00;;;21.70
12875;BMP180;6505;51.114;13.128;2022-09-09T06:50:00;99165.00;;;21.70
12875;BMP180;6505;51.114;13.128;2022-09-09T06:52:29;99170.00;;;21.70
12875;BMP180;6505;51.114;13.128;2022-09-09T06:55:01;99167.00;;;21.80
12875;BMP180;6505;51.114;13.128;2022-09-09T06:57:29;99161.00;;;21.80
12875;BMP180;6505;51.114;13.128;2022-09-09T07:00:12;99157.00;;;21.80
12875;BMP180;6505;51.114;13.128;2022-09-09T07:02:41;99164.00;;;21.80
12875;BMP180;6505;51.114;13.128;2022-09-09T07:05:09;99162.00;;;21.90
12875;BMP180;6505;51.114;13.128;2022-09-09T07:07:40;99167.00;;;21.90
12875;BMP180;6505;51.114;13.128;2022-09-09T07:10:11;99164.00;;;22.00
12875;BMP180;6505;51.114;13.128;2022-09-09T07:12:39;99157.00;;;22.00
12875;BMP180;6505;51.114;13.128;2022-09-09T07:15:10;99165.00;;;22.00
12875;BMP180;6505;51.114;13.128;2022-09-09T07:17:42;99159.00;;;22.10
12875;BMP180;6505;51.114;13.128;2022-09-09T07:20:10;99158.00;;;22.10
12875;BMP180;6505;51.114;13.128;2022-09-09T07:22:39;99170.00;;;22.10
12875;BMP180;6505;51.114;13.128;2022-09-09T07:25:08;99159.00;;;22.20
12875;BMP180;6505;51.114;13.128;2022-09-09T07:27:38;99166.00;;;22.20
12875;BMP180;6505;51.114;13.128;2022-09-09T07:30:09;99164.00;;;22.20
12875;BMP180;6505;51.114;13.128;2022-09-09T07:32:43;99168.00;;;22.30
12875;BMP180;6505;51.114;13.128;2022-09-09T07:35:11;99172.00;;;22.30
12875;BMP180;6505;51.114;13.128;2022-09-09T07:37:40;99175.00;;;22.30
12875;BMP180;6505;51.114;13.128;2022-09-09T07:40:13;99181.00;;;22.40
12875;BMP180;6505;51.114;13.128;2022-09-09T07:42:43;99181.00;;;22.40
12875;BMP180;6505;51.114;13.128;2022-09-09T07:45:11;99183.00;;;22.40
12875;BMP180;6505;51.114;13.128;2022-09-09T07:47:39;99181.00;;;22.40
12875;BMP180;6505;51.114;13.128;2022-09-09T07:50:08;99186.00;;;22.40
12875;BMP180;6505;51.114;13.128;2022-09-09T07:52:37;99192.00;;;22.50
12875;BMP180;6505;51.114;13.128;2022-09-09T07:55:06;99188.00;;;22.50
12875;BMP180;6505;51.114;13.128;2022-09-09T07:57:36;99187.00;;;22.50
12875;BMP180;6505;51.114;13.128;2022-09-09T08:00:07;99184.00;;;22.50
12875;BMP180;6505;51.114;13.128;2022-09-09T08:02:41;99193.00;;;22.50
12875;BMP180;6505;51.114;13.128;2022-09-09T08:05:10;99200.00;;;22.60
12875;BMP180;6505;51.114;13.128;2022-09-09T08:07:39;99193.00;;;22.60
12875;BMP180;6505;51.114;13.128;2022-09-09T08:10:08;99192.00;;;22.60
12875;BMP180;6505;51.114;13.128;2022-09-09T08:12:39;99201.00;;;22.60
12875;BMP180;6505;51.114;13.128;2022-09-09T08:15:23;99210.00;;;22.60
12875;BMP180;6505;51.114;13.128;2022-09-09T08:17:51;99206.00;;;22.70
12875;BMP180;6505;51.114;13.128;2022-09-09T08:20:19;99214.00;;;22.70
12875;BMP180;6505;51.114;13.128;2022-09-09T08:22:47;99211.00;;;22.70
12875;BMP180;6505;51.114;13.128;2022-09-09T08:25:16;99220.00;;;22.70
12875;BMP180;6505;51.114;13.128;2022-09-09T08:27:44;99230.00;;;22.70
12875;BMP180;6505;51.114;13.128;2022-09-09T08:30:12;99223.00;;;22.70
12875;BMP180;6505;51.114;13.128;2022-09-09T08:32:42;99226.00;;;22.70
12875;BMP180;6505;51.114;13.128;2022-09-09T08:35:13;99230.00;;;22.80
12875;BMP180;6505;51.114;13.128;2022-09-09T08:37:41;99251.00;;;22.80
12875;BMP180;6505;51.114;13.128;2022-09-09T08:40:18;99246.00;;;22.70
12875;BMP180;6505;51.114;13.128;2022-09-09T08:42:51;99243.00;;;22.80
12875;BMP180;6505;51.114;13.128;2022-09-09T08:45:31;99243.00;;;22.80
12875;BMP180;6505;51.114;13.128;2022-09-09T08:48:21;99250.00;;;22.70
12875;BMP180;6505;51.114;13.128;2022-09-09T08:50:52;99250.00;;;22.80
12875;BMP180;6505;51.114;13.128;2022-09-09T08:53:29;99244.00;;;22.80
12875;BMP180;6505;51.114;13.128;2022-09-09T08:56:09;99235.00;;;22.70
12875;BMP180;6505;51.114;13.128;2022-09-09T08:58:48;99233.00;;;22.80
12875;BMP180;6505;51.114;13.128;2022-09-09T09:01:44;99229.00;;;22.80
12875;BMP180;6505;51.114;13.128;2022-09-09T09:04:56;99229.00;;;22.70
12875;BMP180;6505;51.114;13.128;2022-09-09T09:07:47;99234.00;;;22.70
12875;BMP180;6505;51.114;13.128;2022-09-09T09:10:43;99224.00;;;22.60
12875;BMP180;6505;51.114;13.128;2022-09-09T09:13:20;99224.00;;;22.80
12875;BMP180;6505;51.114;13.128;2022-09-09T09:15:58;99231.00;;;22.80
12875;BMP180;6505;51.114;13.128;2022-09-09T09:18:28;99236.00;;;22.80
12875;BMP180;6505;51.114;13.128;2022-09-09T09:21:06;99230.00;;;22.80
12875;BMP180;6505;51.114;13.128;2022-09-09T09:23:45;99229.00;;;22.90
12875;BMP180;6505;51.114;13.128;2022-09-09T09:26:15;99219.00;;;22.90
12875;BMP180;6505;51.114;13.128;2022-09-09T09:28:43;99229.00;;;22.90
12875;BMP180;6505;51.114;13.128;2022-09-09T09:31:19;99222.00;;;23.00
12875;BMP180;6505;51.114;13.128;2022-09-09T09:33:50;99230.00;;;23.00
12875;BMP180;6505;51.114;13.128;2022-09-09T09:36:34;99224.00;;;23.00
12875;BMP180;6505;51.114;13.128;2022-09-09T09:39:04;99228.00;;;23.00
12875;BMP180;6505;51.114;13.128;2022-09-09T09:41:53;99221.00;;;23.00
12875;BMP180;6505;51.114;13.128;2022-09-09T09:44:26;99224.00;;;23.00
12875;BMP180;6505;51.114;13.128;2022-09-09T09:47:07;99219.00;;;23.00
12875;BMP180;6505;51.114;13.128;2022-09-09T09:49:36;99218.00;;;23.10
12875;BMP180;6505;51.114;13.128;2022-09-09T09:52:20;99223.00;;;23.10
12875;BMP180;6505;51.114;13.128;2022-09-09T09:54:50;99221.00;;;23.20
12875;BMP180;6505;51.114;13.128;2022-09-09T09:57:26;99218.00;;;23.10
12875;BMP180;6505;51.114;13.128;2022-09-09T10:00:13;99218.00;;;23.20
12875;BMP180;6505;51.114;13.128;2022-09-09T10:02:45;99216.00;;;23.20
12875;BMP180;6505;51.114;13.128;2022-09-09T10:05:22;99220.00;;;23.20
12875;BMP180;6505;51.114;13.128;2022-09-09T10:08:05;99221.00;;;23.30
12875;BMP180;6505;51.114;13.128;2022-09-09T10:10:58;99207.00;;;23.30
12875;BMP180;6505;51.114;13.128;2022-09-09T10:13:32;99186.00;;;23.30
12875;BMP180;6505;51.114;13.128;2022-09-09T10:16:25;99200.00;;;23.30
12875;BMP180;6505;51.114;13.128;2022-09-09T10:19:00;99191.00;;;23.30
12875;BMP180;6505;51.114;13.128;2022-09-09T10:22:06;99206.00;;;23.30
12875;BMP180;6505;51.114;13.128;2022-09-09T10:25:20;99198.00;;;23.30
12875;BMP180;6505;51.114;13.128;2022-09-09T10:28:15;99188.00;;;23.30
12875;BMP180;6505;51.114;13.128;2022-09-09T10:30:58;99197.00;;;23.40
12875;BMP180;6505;51.114;13.128;2022-09-09T10:33:38;99157.00;;;23.40
12875;BMP180;6505;51.114;13.128;2022-09-09T10:36:19;99183.00;;;23.40
12875;BMP180;6505;51.114;13.128;2022-09-09T10:38:54;99190.00;;;23.40
12875;BMP180;6505;51.114;13.128;2022-09-09T10:41:44;99181.00;;;23.40
12875;BMP180;6505;51.114;13.128;2022-09-09T10:44:25;99179.00;;;23.30
12875;BMP180;6505;51.114;13.128;2022-09-09T10:47:21;99174.00;;;23.50
12875;BMP180;6505;51.114;13.128;2022-09-09T10:50:18;99172.00;;;23.50
12875;BMP180;6505;51.114;13.128;2022-09-09T10:53:00;99166.00;;;23.50
12875;BMP180;6505;51.114;13.128;2022-09-09T10:55:39;99168.00;;;23.50
12875;BMP180;6505;51.114;13.128;2022-09-09T10:58:16;99166.00;;;23.60
12875;BMP180;6505;51.114;13.128;2022-09-09T11:00:52;99161.00;;;23.60
12875;BMP180;6505;51.114;13.128;2022-09-09T11:03:28;99152.00;;;23.60
12875;BMP180;6505;51.114;13.128;2022-09-09T11:06:04;99153.00;;;23.60
12875;BMP180;6505;51.114;13.128;2022-09-09T11:08:38;99157.00;;;23.60
12875;BMP180;6505;51.114;13.128;2022-09-09T11:11:13;99164.00;;;23.70
12875;BMP180;6505;51.114;13.128;2022-09-09T11:13:51;99176.00;;;23.70
12875;BMP180;6505;51.114;13.128;2022-09-09T11:16:28;99167.00;;;23.70
12875;BMP180;6505;51.114;13.128;2022-09-09T11:19:03;99164.00;;;23.70
12875;BMP180;6505;51.114;13.128;2022-09-09T11:21:42;99152.00;;;23.70
12875;BMP180;6505;51.114;13.128;2022-09-09T11:24:21;99160.00;;;23.70
12875;BMP180;6505;51.114;13.128;2022-09-09T11:26:56;99170.00;;;23.80
12875;BMP180;6505;51.114;13.128;2022-09-09T11:29:56;99165.00;;;23.80
12875;BMP180;6505;51.114;13.128;2022-09-09T11:32:58;99166.00;;;23.80
12875;BMP180;6505;51.114;13.128;2022-09-09T11:35:40;99167.00;;;23.80
12875;BMP180;6505;51.114;13.128;2022-09-09T11:38:20;99155.00;;;23.80
12875;BMP180;6505;51.114;13.128;2022-09-09T11:40:57;99153.00;;;23.90
12875;BMP180;6505;51.114;13.128;2022-09-09T11:43:31;99152.00;;;23.90
12875;BMP180;6505;51.114;13.128;2022-09-09T11:46:03;99152.00;;;23.90
12875;BMP180;6505;51.114;13.128;2022-09-09T11:48:35;99152.00;;;24.00
12875;BMP180;6505;51.114;13.128;2022-09-09T11:51:07;99152.00;;;24.00
12875;BMP180;6505;51.114;13.128;2022-09-09T11:53:51;99156.00;;;24.00
12875;BMP180;6505;51.114;13.128;2022-09-09T11:56:28;99154.00;;;24.00
12875;BMP180;6505;51.114;13.128;2022-09-09T11:59:01;99155.00;;;24.00
12875;BMP180;6505;51.114;13.128;2022-09-09T12:01:36;99149.00;;;24.00
12875;BMP180;6505;51.114;13.128;2022-09-09T12:04:32;99153.00;;;23.90
12875;BMP180;6505;51.114;13.128;2022-09-09T12:07:04;99149.00;;;24.00
12875;BMP180;6505;51.114;13.128;2022-09-09T12:09:45;99160.00;;;24.00
12875;BMP180;6505;51.114;13.128;2022-09-09T12:12:33;99165.00;;;24.00
12875;BMP180;6505;51.114;13.128;2022-09-09T12:15:22;99159.00;;;24.10
12875;BMP180;6505;51.114;13.128;2022-09-09T12:17:55;99154.00;;;24.10
12875;BMP180;6505;51.114;13.128;2022-09-09T12:20:35;99155.00;;;24.10
12875;BMP180;6505;51.114;13.128;2022-09-09T12:23:21;99146.00;;;24.10
12875;BMP180;6505;51.114;13.128;2022-09-09T12:26:03;99138.00;;;24.10
12875;BMP180;6505;51.114;13.128;2022-09-09T12:28:46;99142.00;;;24.10
12875;BMP180;6505;51.114;13.128;2022-09-09T12:31:23;99142.00;;;24.20
12875;BMP180;6505;51.114;13.128;2022-09-09T12:33:54;99140.00;;;24.20
12875;BMP180;6505;51.114;13.128;2022-09-09T12:36:28;99137.00;;;24.20
12875;BMP180;6505;51.114;13.128;2022-09-09T12:39:10;99128.00;;;24.20
12875;BMP180;6505;51.114;13.128;2022-09-09T12:41:52;99122.00;;;24.20
12875;BMP180;6505;51.114;13.128;2022-09-09T12:44:25;99121.00;;;24.20
12875;BMP180;6505;51.114;13.128;2022-09-09T12:46:57;99114.00;;;24.20
12875;BMP180;6505;51.114;13.128;2022-09-09T12:49:31;99119.00;;;24.20
12875;BMP180;6505;51.114;13.128;2022-09-09T12:52:04;99128.00;;;24.30
12875;BMP180;6505;51.114;13.128;2022-09-09T12:54:36;99110.00;;;24.30
12875;BMP180;6505;51.114;13.128;2022-09-09T12:57:09;99117.00;;;24.30
12875;BMP180;6505;51.114;13.128;2022-09-09T12:59:41;99117.00;;;24.30
12875;BMP180;6505;51.114;13.128;2022-09-09T13:02:18;99114.00;;;24.30
12875;BMP180;6505;51.114;13.128;2022-09-09T13:04:49;99102.00;;;24.30
12875;BMP180;6505;51.114;13.128;2022-09-09T13:07:18;99092.00;;;24.30
12875;BMP180;6505;51.114;13.128;2022-09-09T13:09:49;99100.00;;;24.30
12875;BMP180;6505;51.114;13.128;2022-09-09T13:12:21;99074.00;;;24.30
12875;BMP180;6505;51.114;13.128;2022-09-09T13:14:53;99093.00;;;24.30
12875;BMP180;6505;51.114;13.128;2022-09-09T13:17:24;99094.00;;;24.30
12875;BMP180;6505;51.114;13.128;2022-09-09T13:19:57;99088.00;;;24.40
12875;BMP180;6505;51.114;13.128;2022-09-09T13:22:31;99089.00;;;24.30
12875;BMP180;6505;51.114;13.128;2022-09-09T13:25:03;99081.00;;;24.40
12875;BMP180;6505;51.114;13.128;2022-09-09T13:27:34;99085.00;;;24.40
12875;BMP180;6505;51.114;13.128;2022-09-09T13:30:21;99093.00;;;24.40
12875;BMP180;6505;51.114;13.128;2022-09-09T13:33:21;99098.00;;;24.30
12875;BMP180;6505;51.114;13.128;2022-09-09T13:35:55;99096.00;;;24.40
12875;BMP180;6505;51.114;13.128;2022-09-09T13:38:30;99090.00;;;24.40
12875;BMP180;6505;51.114;13.128;2022-09-09T13:41:02;99087.00;;;24.40
12875;BMP180;6505;51.114;13.128;2022-09-09T13:43:34;99100.00;;;24.40
12875;BMP180;6505;51.114;13.128;2022-09-09T13:46:24;99090.00;;;24.40
12875;BMP180;6505;51.114;13.128;2022-09-09T13:48:56;99081.00;;;24.40
12875;BMP180;6505;51.114;13.128;2022-09-09T13:51:35;99081.00;;;24.40
12875;BMP180;6505;51.114;13.128;2022-09-09T13:54:05;99088.00;;;24.50
12875;BMP180;6505;51.114;13.128;2022-09-09T13:56:34;99087.00;;;24.50
12875;BMP180;6505;51.114;13.128;2022-09-09T13:59:05;99083.00;;;24.50
12875;BMP180;6505;51.114;13.128;2022-09-09T14:01:34;99090.00;;;24.50
12875;BMP180;6505;51.114;13.128;2022-09-09T14:04:04;99089.00;;;24.50
12875;BMP180;6505;51.114;13.128;2022-09-09T14:06:35;99091.00;;;24.50
12875;BMP180;6505;51.114;13.128;2022-09-09T14:09:05;99076.00;;;24.60
12875;BMP180;6505;51.114;13.128;2022-09-09T14:11:33;99073.00;;;24.50
12875;BMP180;6505;51.114;13.128;2022-09-09T14:14:01;99078.00;;;24.60
12875;BMP180;6505;51.114;13.128;2022-09-09T14:16:29;99076.00;;;24.60
12875;BMP180;6505;51.114;13.128;2022-09-09T14:18:57;99068.00;;;24.60
12875;BMP180;6505;51.114;13.128;2022-09-09T14:21:27;99071.00;;;24.60
12875;BMP180;6505;51.114;13.128;2022-09-09T14:23:57;99083.00;;;24.60
12875;BMP180;6505;51.114;13.128;2022-09-09T14:26:25;99077.00;;;24.70
12875;BMP180;6505;51.114;13.128;2022-09-09T14:28:55;99073.00;;;24.70
12875;BMP180;6505;51.114;13.128;2022-09-09T14:31:24;99069.00;;;24.70
12875;BMP180;6505;51.114;13.128;2022-09-09T14:33:53;99070.00;;;24.70
12875;BMP180;6505;51.114;13.128;2022-09-09T14:36:21;99068.00;;;24.70
12875;BMP180;6505;51.114;13.128;2022-09-09T14:38:49;99069.00;;;24.70
12875;BMP180;6505;51.114;13.128;2022-09-09T14:41:20;99063.00;;;24.70
12875;BMP180;6505;51.114;13.128;2022-09-09T14:43:49;99058.00;;;24.70
12875;BMP180;6505;51.114;13.128;2022-09-09T14:46:20;99056.00;;;24.80
12875;BMP180;6505;51.114;13.128;2022-09-09T14:48:48;99059.00;;;24.80
12875;BMP180;6505;51.114;13.128;2022-09-09T14:51:19;99048.00;;;24.80
12875;BMP180;6505;51.114;13.128;2022-09-09T15:14:30;99076.00;;;21.50